Time;durP1;ratioP1;P1;durP2;ratioP2;P2;SDS_P1;SDS_P2;PMS_P1;PMS_P2;Temp;Humidity;BMP_temperature;BMP_pressure;BME280_temperature;BME280_humidity;BME280_pressure;Samples;Min_cycle;Max_cycle;Signal;HPM_P1;HPM_P2
2020/12/03 03:46:37;;;;;;;48.05;18.25;;;1.00;99.90;;;;;;5736576;23;89507;-83
2020/12/03 03:49:03;;;;;;;47.22;17.25;;;1.00;99.90;;;;;;4946884;28;90498;-81
2020/12/03 03:51:29;;;;;;;47.60;18.52;;;1.20;99.90;;;;;;4963392;28;87086;-82
2020/12/03 03:53:54;;;;;;;48.45;18.00;;;1.00;99.90;;;;;;4962194;28;86256;-83
2020/12/03 03:56:20;;;;;;;46.20;16.77;;;1.00;99.90;;;;;;4948535;28;88039;-83
2020/12/03 03:58:47;;;;;;;41.47;17.30;;;1.10;99.90;;;;;;4944680;28;87139;-84
2020/12/03 04:01:12;;;;;;;46.95;18.05;;;1.00;99.90;;;;;;4941811;28;86982;-83
2020/12/03 04:03:38;;;;;;;47.72;17.83;;;1.00;99.90;;;;;;4938488;28;86844;-83
2020/12/03 04:06:04;;;;;;;44.47;19.23;;;1.20;99.90;;;;;;4939219;28;87828;-84
2020/12/03 04:08:30;;;;;;;40.80;16.42;;;1.00;99.90;;;;;;4948262;28;86743;-84
2020/12/03 04:10:56;;;;;;;39.25;16.67;;;1.40;99.90;;;;;;4944942;28;87146;-83
2020/12/03 04:13:25;;;;;;;39.83;15.60;;;0.90;99.90;;;;;;4944341;28;87000;-83
2020/12/03 04:15:51;;;;;;;36.92;14.75;;;0.90;99.90;;;;;;4960992;28;88518;-84
2020/12/03 04:18:22;;;;;;;41.60;18.80;;;0.90;99.90;;;;;;4958782;28;87985;-84
2020/12/03 04:20:47;;;;;;;39.50;15.10;;;0.90;99.90;;;;;;4961692;28;87962;-83
2020/12/03 04:23:13;;;;;;;40.38;15.98;;;1.20;99.90;;;;;;4965027;28;86825;-83
2020/12/03 04:25:39;;;;;;;38.10;14.98;;;1.00;99.90;;;;;;4966085;28;88247;-82
2020/12/03 04:28:04;;;;;;;39.53;15.65;;;1.00;99.90;;;;;;4956783;28;88889;-82
2020/12/03 04:30:30;;;;;;;37.25;15.38;;;1.00;99.90;;;;;;4965449;28;87016;-82
2020/12/03 04:32:56;;;;;;;40.55;16.42;;;1.00;99.90;;;;;;4954616;28;86733;-82
2020/12/03 04:35:22;;;;;;;37.80;16.98;;;0.70;99.90;;;;;;4943941;28;88064;-84
2020/12/03 04:37:48;;;;;;;39.22;17.88;;;1.20;99.90;;;;;;4960733;28;86793;-84
2020/12/03 04:40:31;;;;;;;38.20;17.35;;;1.30;99.90;;;;;;4954876;28;87938;-83
2020/12/03 04:42:59;;;;;;;35.42;16.05;;;0.90;99.90;;;;;;4982498;28;86246;-84
2020/12/03 04:45:39;;;;;;;42.55;16.90;;;0.80;99.90;;;;;;4968907;28;86884;-84
2020/12/03 04:48:10;;;;;;;45.70;17.75;;;1.20;99.90;;;;;;4964330;28;88370;-82
2020/12/03 04:50:39;;;;;;;42.28;17.05;;;1.20;99.90;;;;;;4945678;28;86975;-82
2020/12/03 04:53:11;;;;;;;43.03;17.20;;;1.20;99.90;;;;;;4959077;28;86980;-82
2020/12/03 04:55:53;;;;;;;46.53;17.52;;;1.20;99.90;;;;;;4949953;28;87168;-82
2020/12/03 04:58:51;;;;;;;41.17;15.40;;;1.30;99.90;;;;;;4964414;28;87466;-83
2020/12/03 05:02:11;;;;;;;45.97;17.70;;;1.30;99.90;;;;;;4957395;28;87125;-82
2020/12/03 05:04:50;;;;;;;41.33;15.68;;;1.30;99.90;;;;;;4888094;28;87241;-83
2020/12/03 05:07:17;;;;;;;41.72;15.27;;;1.40;99.90;;;;;;4953713;28;87845;-83
2020/12/03 05:09:56;;;;;;;45.67;16.58;;;1.40;99.90;;;;;;4968246;28;87147;-81
2020/12/03 05:12:27;;;;;;;35.72;13.90;;;1.10;99.90;;;;;;4967195;28;86939;-84
2020/12/03 05:14:56;;;;;;;;;;;1.30;99.90;;;;;;4954868;28;86094;-83
2020/12/03 05:17:33;;;;;;;36.53;14.95;;;1.30;99.90;;;;;;4970413;28;86982;-82
2020/12/03 05:20:11;;;;;;;39.65;15.23;;;1.30;99.90;;;;;;4952731;28;87289;-83
2020/12/03 05:22:40;;;;;;;43.20;14.32;;;1.20;99.90;;;;;;4967107;28;86548;-84
2020/12/03 05:25:14;;;;;;;43.72;17.20;;;0.60;99.90;;;;;;4968321;28;86225;-83
2020/12/03 05:27:42;;;;;;;47.15;19.48;;;0.80;99.90;;;;;;4969208;28;88150;-83
2020/12/03 05:30:09;;;;;;;42.80;16.42;;;0.90;99.90;;;;;;4969486;28;87696;-83
2020/12/03 05:32:36;;;;;;;38.17;16.35;;;1.60;99.90;;;;;;4967977;28;87872;-83
2020/12/03 05:35:04;;;;;;;44.88;18.70;;;1.30;99.90;;;;;;4962205;28;87035;-83
2020/12/03 05:37:33;;;;;;;43.75;17.08;;;1.30;99.90;;;;;;4961827;28;86889;-83
2020/12/03 05:39:59;;;;;;;40.85;16.58;;;1.30;99.90;;;;;;4957987;28;88365;-84
2020/12/03 05:42:36;;;;;;;37.80;16.45;;;1.30;99.90;;;;;;4967044;28;86895;-83
2020/12/03 05:45:10;;;;;;;42.30;17.33;;;1.30;99.90;;;;;;4950112;28;86940;-84
2020/12/03 05:47:38;;;;;;;36.40;15.38;;;1.30;99.90;;;;;;4956765;28;87890;-83
2020/12/03 05:50:16;;;;;;;40.42;16.98;;;1.10;99.90;;;;;;4963810;28;86287;-83
2020/12/03 05:53:14;;;;;;;39.83;17.85;;;1.00;99.90;;;;;;4950347;28;86868;-83
2020/12/03 05:55:40;;;;;;;39.30;16.92;;;1.40;99.90;;;;;;4965164;28;86867;-83
2020/12/03 05:58:32;;;;;;;47.38;18.52;;;1.40;99.90;;;;;;4965378;28;90042;-82
2020/12/03 06:01:22;;;;;;;41.13;16.98;;;1.40;99.90;;;;;;4948257;28;88401;-83
2020/12/03 06:04:23;;;;;;;41.47;17.88;;;1.40;99.90;;;;;;4945234;28;87107;-83
2020/12/03 06:07:16;;;;;;;36.92;15.35;;;1.40;99.90;;;;;;4955846;28;86900;-81
2020/12/03 06:10:16;;;;;;;42.13;16.92;;;1.40;99.90;;;;;;4966843;28;86985;-82
2020/12/03 06:12:53;;;;;;;38.75;16.20;;;1.40;99.90;;;;;;4946414;28;90027;-83
2020/12/03 06:15:30;;;;;;;44.85;16.73;;;1.40;99.90;;;;;;4956960;28;86970;-83
2020/12/03 06:18:07;;;;;;;39.75;15.15;;;1.30;99.90;;;;;;4967314;28;86106;-83
2020/12/03 06:21:34;;;;;;;42.03;15.88;;;1.30;99.90;;;;;;4964872;28;87322;-82
2020/12/03 06:24:26;;;;;;;40.88;17.33;;;1.40;99.90;;;;;;4924191;28;86957;-81
2020/12/03 06:27:21;;;;;;;35.72;14.75;;;1.30;99.90;;;;;;4962108;28;87820;-81
2020/12/03 06:30:18;;;;;;;36.88;14.55;;;1.40;99.90;;;;;;4960920;28;86972;-80
2020/12/03 06:33:10;;;;;;;33.00;14.40;;;1.50;99.90;;;;;;4961697;28;88078;-81
2020/12/03 06:35:55;;;;;;;37.28;15.50;;;1.50;99.90;;;;;;4959307;28;86925;-81
2020/12/03 06:38:33;;;;;;;41.97;16.70;;;1.50;99.90;;;;;;4962110;28;87000;-82
2020/12/03 06:41:24;;;;;;;42.33;16.83;;;1.50;99.90;;;;;;4966110;28;86855;-81
2020/12/03 06:44:09;;;;;;;38.63;16.50;;;1.50;99.90;;;;;;4957339;28;87425;-85
2020/12/03 06:47:06;;;;;;;41.42;16.38;;;1.50;99.90;;;;;;4959843;28;87491;-84
2020/12/03 06:49:52;;;;;;;38.40;16.17;;;1.50;99.90;;;;;;4966554;28;86184;-83
2020/12/03 06:53:05;;;;;;;33.50;14.75;;;1.40;99.90;;;;;;4964485;28;86237;-84
2020/12/03 06:55:46;;;;;;;35.72;15.52;;;1.40;99.90;;;;;;4882968;28;87719;-85
2020/12/03 06:58:35;;;;;;;38.80;15.10;;;1.40;99.90;;;;;;4959238;28;88703;-82
2020/12/03 07:01:52;;;;;;;34.78;14.38;;;1.50;99.90;;;;;;4961608;28;86964;-83
2020/12/03 07:04:20;;;;;;;41.95;15.65;;;1.50;99.90;;;;;;4888564;28;86925;-85
2020/12/03 07:07:23;;;;;;;40.42;17.27;;;1.40;99.90;;;;;;4904343;28;87267;-84
2020/12/03 07:10:12;;;;;;;36.03;15.00;;;1.30;99.90;;;;;;4904213;28;87289;-82
2020/12/03 07:12:43;;;;;;;40.53;16.67;;;1.40;99.90;;;;;;4906130;28;87233;-84
2020/12/03 07:15:29;;;;;;;35.40;16.47;;;1.40;99.90;;;;;;4908244;28;86532;-84
2020/12/03 07:18:13;;;;;;;35.92;14.25;;;1.50;99.90;;;;;;4894865;28;88264;-84
2020/12/03 07:20:42;;;;;;;38.47;17.17;;;1.40;99.90;;;;;;4907542;28;86534;-83
2020/12/03 07:23:14;;;;;;;35.10;16.08;;;1.70;99.90;;;;;;4900093;28;87691;-84
2020/12/03 07:25:42;;;;;;;35.78;16.05;;;1.50;99.90;;;;;;4899113;28;88015;-84
2020/12/03 07:28:25;;;;;;;35.13;15.80;;;1.30;99.90;;;;;;4905448;28;87318;-84
2020/12/03 07:31:00;;;;;;;33.63;15.68;;;1.30;99.90;;;;;;4906581;28;87353;-84
2020/12/03 07:33:50;;;;;;;34.08;15.15;;;1.30;99.90;;;;;;4905553;28;88044;-84
2020/12/03 07:36:20;;;;;;;35.20;14.50;;;1.40;99.90;;;;;;4956399;28;86981;-84
2020/12/03 07:39:20;;;;;;;33.03;14.15;;;1.10;99.90;;;;;;4966854;28;86948;-83
2020/12/03 07:41:58;;;;;;;36.85;14.05;;;1.30;99.90;;;;;;4918933;28;86925;-84
2020/12/03 07:44:27;;;;;;;32.55;15.30;;;1.50;99.90;;;;;;4968577;28;86832;-84
2020/12/03 07:47:13;;;;;;;35.75;15.85;;;1.80;99.90;;;;;;4964101;28;87403;-83
2020/12/03 07:49:47;;;;;;;34.97;16.25;;;1.60;99.90;;;;;;4967308;28;87719;-83
2020/12/03 07:52:26;;;;;;;33.95;15.80;;;1.40;99.90;;;;;;4970163;28;88480;-83
2020/12/03 07:54:52;;;;;;;34.33;15.07;;;1.20;99.90;;;;;;4979189;28;86092;-83
2020/12/03 07:57:44;;;;;;;32.75;16.25;;;1.60;99.90;;;;;;4980783;28;86194;-84
2020/12/03 08:00:29;;;;;;;32.70;15.20;;;1.70;99.90;;;;;;4965305;28;87354;-83
2020/12/03 08:02:55;;;;;;;38.85;16.25;;;1.50;99.90;;;;;;4974300;28;86454;-82
2020/12/03 08:05:38;;;;;;;32.38;15.60;;;1.80;99.90;;;;;;4981369;28;86232;-83
2020/12/03 08:08:31;;;;;;;34.05;13.35;;;1.70;99.90;;;;;;4974182;28;86059;-83
2020/12/03 08:10:57;;;;;;;34.15;14.18;;;1.70;99.90;;;;;;4969671;28;86748;-83
2020/12/03 08:13:37;;;;;;;34.08;16.33;;;1.70;99.90;;;;;;4968160;28;86296;-84
2020/12/03 08:16:09;;;;;;;30.52;12.60;;;1.70;99.90;;;;;;4965336;28;88140;-84
2020/12/03 08:18:59;;;;;;;33.42;13.27;;;2.30;99.90;;;;;;4964160;28;87262;-85
2020/12/03 08:21:38;;;;;;;29.20;13.13;;;2.00;99.90;;;;;;4954813;28;87427;-83
2020/12/03 08:24:06;;;;;;;35.92;16.05;;;2.30;99.90;;;;;;4952972;28;87415;-83
2020/12/03 08:26:33;;;;;;;30.58;14.45;;;1.80;99.90;;;;;;4966211;28;86733;-83
2020/12/03 08:28:59;;;;;;;27.73;12.68;;;2.00;99.90;;;;;;4964123;28;86801;-83
2020/12/03 08:31:24;;;;;;;31.58;14.65;;;2.30;99.90;;;;;;4963495;28;88696;-83
2020/12/03 08:33:53;;;;;;;32.88;15.35;;;2.10;99.90;;;;;;4958201;28;86575;-83
2020/12/03 08:36:22;;;;;;;41.72;19.90;;;2.40;99.90;;;;;;4960820;28;86939;-83
2020/12/03 08:38:53;;;;;;;30.90;15.00;;;2.40;99.90;;;;;;4962436;28;87111;-82
2020/12/03 08:41:21;;;;;;;30.67;15.38;;;2.50;99.90;;;;;;4962931;28;88541;-83
2020/12/03 08:43:52;;;;;;;38.55;16.88;;;2.70;99.90;;;;;;4966230;28;87299;-83
2020/12/03 08:46:23;;;;;;;28.38;13.20;;;2.90;99.90;;;;;;4965929;28;86855;-83
2020/12/03 08:48:49;;;;;;;;;;;3.00;97.40;;;;;;4963000;28;86904;-83
2020/12/03 08:51:17;;;;;;;31.60;16.23;;;3.40;96.60;;;;;;4967365;28;87085;-83
2020/12/03 08:53:44;;;;;;;36.13;17.98;;;3.80;96.50;;;;;;4966545;28;86892;-83
2020/12/03 08:56:16;;;;;;;32.28;16.33;;;3.50;96.60;;;;;;4964526;28;87075;-83
2020/12/03 08:58:53;;;;;;;26.60;12.88;;;3.70;94.40;;;;;;4962966;28;86012;-83
2020/12/03 09:01:22;;;;;;;37.55;20.20;;;3.90;92.80;;;;;;4964253;28;86527;-83
2020/12/03 09:03:49;;;;;;;28.58;13.38;;;3.80;93.20;;;;;;4965103;28;86710;-83
2020/12/03 09:06:16;;;;;;;25.40;13.82;;;3.80;90.40;;;;;;4961509;28;87658;-83
2020/12/03 09:08:42;;;;;;;30.50;15.27;;;3.80;90.60;;;;;;4961292;28;88312;-83
2020/12/03 09:11:08;;;;;;;26.60;14.30;;;3.60;90.30;;;;;;4962133;28;87343;-84
2020/12/03 09:13:35;;;;;;;25.85;13.45;;;3.80;90.50;;;;;;4957230;28;87863;-83
2020/12/03 09:16:01;;;;;;;27.80;12.85;;;3.80;90.50;;;;;;4965834;28;86799;-84
2020/12/03 09:18:27;;;;;;;27.10;13.57;;;3.80;90.50;;;;;;4961973;28;86894;-82
2020/12/03 09:20:53;;;;;;;25.77;13.82;;;3.70;90.70;;;;;;4967163;28;86806;-83
2020/12/03 09:23:29;;;;;;;26.10;12.50;;;4.00;88.80;;;;;;4965408;28;86933;-84
2020/12/03 09:25:56;;;;;;;26.83;12.65;;;4.10;89.50;;;;;;4966995;28;86881;-84
2020/12/03 09:28:22;;;;;;;26.70;14.05;;;4.20;88.20;;;;;;4949915;28;87775;-86
2020/12/03 09:30:48;;;;;;;26.42;12.25;;;4.20;86.40;;;;;;4967780;28;88964;-84
2020/12/03 09:33:19;;;;;;;18.98;11.00;;;4.30;84.70;;;;;;4965048;28;88541;-83
2020/12/03 09:35:47;;;;;;;27.77;13.35;;;4.20;84.80;;;;;;4972562;28;86876;-83
2020/12/03 09:38:15;;;;;;;27.95;14.02;;;4.40;85.70;;;;;;4968884;28;86651;-83
2020/12/03 09:40:47;;;;;;;25.15;14.25;;;4.80;84.40;;;;;;4971078;28;87083;-82
2020/12/03 09:43:18;;;;;;;25.35;12.65;;;5.40;83.00;;;;;;4965289;28;86993;-84
2020/12/03 09:45:47;;;;;;;22.58;12.52;;;5.70;79.70;;;;;;4970741;28;86784;-83
2020/12/03 09:48:15;;;;;;;26.25;13.25;;;5.90;78.10;;;;;;4970521;28;86025;-83
2020/12/03 09:50:42;;;;;;;26.30;13.05;;;5.70;78.80;;;;;;4960712;28;87030;-83
2020/12/03 09:53:16;;;;;;;27.55;15.00;;;5.70;77.40;;;;;;4962725;28;87029;-83
2020/12/03 09:55:43;;;;;;;24.13;13.55;;;5.70;79.30;;;;;;4967995;28;87816;-84
2020/12/03 09:58:09;;;;;;;25.98;13.82;;;5.80;76.30;;;;;;4968959;28;86831;-83
2020/12/03 10:00:39;;;;;;;25.25;13.43;;;6.10;76.70;;;;;;4965510;28;87288;-83
2020/12/03 10:03:21;;;;;;;32.03;14.98;;;6.20;76.20;;;;;;4967697;28;87437;-83
2020/12/03 10:06:08;;;;;;;29.67;14.68;;;6.50;75.50;;;;;;4968572;28;86843;-83
2020/12/03 10:08:59;;;;;;;27.75;14.80;;;6.60;75.70;;;;;;4967931;28;86221;-83
2020/12/03 10:11:32;;;;;;;27.67;14.43;;;6.90;75.20;;;;;;4967797;28;88119;-83
2020/12/03 10:14:35;;;;;;;26.02;14.13;;;7.70;72.60;;;;;;4970287;28;87026;-83
2020/12/03 10:17:06;;;;;;;26.67;14.98;;;8.30;69.30;;;;;;4948293;28;86868;-83
2020/12/03 10:19:40;;;;;;;;;;;8.80;67.10;;;;;;4969276;28;86898;-84
2020/12/03 10:22:30;;;;;;;26.50;13.23;;;9.20;64.00;;;;;;4969802;28;87955;-83
2020/12/03 10:25:18;;;;;;;22.00;13.48;;;9.50;64.30;;;;;;4954443;28;89038;-84
2020/12/03 10:28:09;;;;;;;23.08;13.13;;;9.70;63.00;;;;;;4968053;28;86988;-83
2020/12/03 10:30:37;;;;;;;22.45;13.18;;;9.20;62.90;;;;;;4958268;28;86782;-83
2020/12/03 10:33:08;;;;;;;23.70;14.23;;;9.40;62.70;;;;;;4968450;28;87738;-84
2020/12/03 10:35:39;;;;;;;22.35;12.40;;;9.30;61.50;;;;;;4970645;28;87362;-84
2020/12/03 10:38:12;;;;;;;21.23;13.13;;;9.00;61.70;;;;;;4966733;28;86848;-84
2020/12/03 10:40:39;;;;;;;21.25;12.45;;;8.30;62.80;;;;;;4969519;28;85906;-84
2020/12/03 10:43:05;;;;;;;23.73;13.10;;;7.80;64.60;;;;;;4969683;28;87113;-84
2020/12/03 10:45:34;;;;;;;23.27;12.73;;;7.20;66.90;;;;;;4970517;28;86926;-85
2020/12/03 10:48:18;;;;;;;23.13;12.55;;;6.80;68.30;;;;;;4967008;28;88010;-84
2020/12/03 10:50:47;;;;;;;23.63;13.13;;;6.70;68.80;;;;;;4964881;28;86547;-84
2020/12/03 10:53:16;;;;;;;20.70;12.10;;;6.80;69.20;;;;;;4966092;28;87503;-84
2020/12/03 10:55:43;;;;;;;25.25;12.98;;;7.30;68.80;;;;;;4969364;28;87825;-83
2020/12/03 10:58:11;;;;;;;23.40;12.77;;;7.50;67.30;;;;;;4947007;28;86934;-84
2020/12/03 11:00:39;;;;;;;21.27;12.45;;;7.70;67.50;;;;;;4968969;28;86776;-83
2020/12/03 11:03:10;;;;;;;25.00;13.25;;;8.20;66.60;;;;;;4971079;28;86763;-83
2020/12/03 11:05:36;;;;;;;22.90;13.85;;;8.50;63.80;;;;;;4970664;28;87648;-84
2020/12/03 11:08:02;;;;;;;28.52;15.02;;;8.80;64.00;;;;;;4968745;28;86303;-85
2020/12/03 11:10:29;;;;;;;30.60;16.27;;;8.90;61.00;;;;;;4961412;28;86682;-84
2020/12/03 11:12:59;;;;;;;26.42;15.60;;;8.60;62.80;;;;;;4967255;28;87826;-83
2020/12/03 11:15:28;;;;;;;27.27;15.90;;;;;;;;;;4975062;28;87830;-83
2020/12/03 11:18:18;;;;;;;26.10;14.32;;;8.80;62.00;;;;;;4976595;28;86522;-84
2020/12/03 11:20:44;;;;;;;25.25;14.90;;;8.90;61.10;;;;;;4949306;28;87075;-83
2020/12/03 11:23:17;;;;;;;24.17;14.95;;;9.50;60.40;;;;;;4971095;28;87323;-83
2020/12/03 11:25:44;;;;;;;23.33;14.32;;;10.10;58.30;;;;;;4962925;28;86934;-83
2020/12/03 11:28:31;;;;;;;24.73;15.93;;;10.20;58.80;;;;;;4943568;28;86699;-84
2020/12/03 11:31:04;;;;;;;23.60;14.10;;;10.20;57.90;;;;;;4966391;28;86479;-83
2020/12/03 11:33:31;;;;;;;25.42;14.52;;;10.30;58.50;;;;;;4962860;28;87718;-84
2020/12/03 11:36:08;;;;;;;25.90;15.27;;;9.90;57.70;;;;;;4966069;28;86613;-83
2020/12/03 11:38:34;;;;;;;24.30;14.15;;;9.80;58.70;;;;;;4964461;28;87789;-84
2020/12/03 11:41:09;;;;;;;25.38;16.10;;;9.50;58.70;;;;;;4968693;28;86681;-83
2020/12/03 11:48:52;;;;;;;26.90;13.57;;;10.90;56.70;;;;;;4959784;28;87024;-83
2020/12/03 11:51:30;;;;;;;25.08;15.18;;;11.10;54.50;;;;;;4966310;28;86765;-81
2020/12/03 11:54:02;;;;;;;24.15;15.15;;;11.10;55.70;;;;;;4964645;28;87383;-82
2020/12/03 11:56:32;;;;;;;20.80;14.05;;;11.90;55.00;;;;;;4964289;28;87785;-82
2020/12/03 11:59:17;;;;;;;26.00;15.48;;;13.00;52.90;;;;;;4964539;28;87087;-84
2020/12/03 12:01:56;;;;;;;21.08;13.98;;;13.50;49.10;;;;;;4955086;28;86953;-82
2020/12/03 12:04:29;;;;;;;19.60;12.35;;;13.70;48.50;;;;;;4968215;28;87945;-82
2020/12/03 12:10:08;;;;;;;24.15;16.38;;;13.90;48.90;;;;;;4963167;28;86158;-84
2020/12/03 12:12:35;;;;;;;23.05;14.80;;;13.10;50.10;;;;;;4954766;28;86713;-83
2020/12/03 12:15:01;;;;;;;24.63;15.23;;;12.10;52.40;;;;;;4973780;28;88167;-83
2020/12/03 12:18:04;;;;;;;24.40;15.13;;;11.40;53.90;;;;;;4972083;28;87192;-84
2020/12/03 12:20:30;;;;;;;24.38;15.90;;;10.60;55.10;;;;;;4970529;28;86818;-83
2020/12/03 12:22:56;;;;;;;23.90;14.85;;;9.70;58.40;;;;;;4963655;28;86143;-82
2020/12/03 12:25:21;;;;;;;23.73;14.73;;;9.30;59.00;;;;;;4948628;28;88580;-83
2020/12/03 12:27:48;;;;;;;25.58;15.52;;;9.20;60.40;;;;;;4964454;28;86569;-83
2020/12/03 12:30:13;;;;;;;24.92;15.02;;;9.00;60.20;;;;;;4963764;28;87901;-83
2020/12/03 12:32:40;;;;;;;28.80;17.05;;;8.60;61.60;;;;;;4966355;28;86691;-83
2020/12/03 12:35:06;;;;;;;27.10;14.57;;;8.30;63.90;;;;;;4963570;28;87024;-83
2020/12/03 12:37:32;;;;;;;26.10;15.73;;;7.90;64.00;;;;;;4958201;28;86953;-83
2020/12/03 12:39:57;;;;;;;27.00;16.27;;;7.60;67.60;;;;;;4963111;28;87109;-83
2020/12/03 12:42:27;;;;;;;28.40;14.68;;;7.30;67.70;;;;;;4965855;28;86901;-83
2020/12/03 12:44:53;;;;;;;24.98;13.10;;;6.80;69.60;;;;;;4964839;28;87091;-83
2020/12/03 12:47:19;;;;;;;27.15;13.98;;;6.60;69.00;;;;;;4965781;28;86968;-83
2020/12/03 12:49:45;;;;;;;29.10;15.15;;;6.30;70.80;;;;;;4965845;28;86931;-83
2020/12/03 12:52:11;;;;;;;27.60;14.45;;;6.20;71.80;;;;;;4964922;28;86827;-83
2020/12/03 12:54:36;;;;;;;31.42;16.15;;;6.20;72.50;;;;;;4963904;28;89751;-83
2020/12/03 12:57:03;;;;;;;29.17;15.07;;;6.50;72.70;;;;;;4964116;28;87156;-83
2020/12/03 12:59:29;;;;;;;25.42;13.93;;;7.00;70.20;;;;;;4964138;28;87968;-83
2020/12/03 13:01:54;;;;;;;23.98;13.82;;;7.80;66.50;;;;;;4961284;28;87110;-83
2020/12/03 13:04:21;;;;;;;24.58;14.02;;;8.60;64.50;;;;;;4969859;28;86989;-84
2020/12/03 13:06:48;;;;;;;25.17;13.48;;;9.30;60.70;;;;;;4962237;28;87808;-84
2020/12/03 13:09:14;;;;;;;24.42;13.70;;;9.80;58.60;;;;;;4970002;28;86686;-84
2020/12/03 13:11:42;;;;;;;21.00;13.13;;;10.00;57.80;;;;;;4970488;28;86240;-84
2020/12/03 13:14:09;;;;;;;21.75;13.90;;;10.40;57.20;;;;;;4969786;28;87151;-84
2020/12/03 13:16:36;;;;;;;19.60;12.93;;;10.80;55.80;;;;;;4969192;28;87907;-84
2020/12/03 13:19:03;;;;;;;22.98;13.63;;;11.30;53.40;;;;;;4967337;28;87879;-84
2020/12/03 13:21:31;;;;;;;21.13;12.05;;;11.50;53.50;;;;;;4969570;28;86939;-84
2020/12/03 13:23:57;;;;;;;19.73;13.40;;;11.20;53.00;;;;;;4969848;28;86904;-84
2020/12/03 13:26:23;;;;;;;20.33;14.20;;;10.60;54.70;;;;;;4968724;28;87012;-84
2020/12/03 13:28:49;;;;;;;18.98;12.25;;;10.40;54.80;;;;;;4970591;28;86844;-83
2020/12/03 13:31:15;;;;;;;17.88;11.68;;;10.60;55.40;;;;;;4969353;28;86967;-84
2020/12/03 13:33:41;;;;;;;18.95;12.60;;;10.80;55.30;;;;;;4967227;28;87392;-84
2020/12/03 13:36:07;;;;;;;16.90;11.85;;;11.10;54.80;;;;;;4968761;28;86360;-84
2020/12/03 13:38:33;;;;;;;16.80;12.00;;;11.10;53.80;;;;;;4968757;28;86866;-84
2020/12/03 13:40:58;;;;;;;21.83;12.70;;;11.20;54.30;;;;;;4968450;28;86923;-84
2020/12/03 13:43:24;;;;;;;19.38;12.05;;;11.30;55.00;;;;;;4966974;28;88665;-84
2020/12/03 13:45:51;;;;;;;19.95;12.88;;;11.40;54.00;;;;;;4968474;28;87353;-83
2020/12/03 13:48:16;;;;;;;17.85;11.52;;;11.30;53.10;;;;;;4967387;28;86868;-84
2020/12/03 13:50:45;;;;;;;15.88;12.02;;;11.30;53.90;;;;;;4961010;28;86795;-85
2020/12/03 13:53:11;;;;;;;16.98;12.48;;;11.50;53.70;;;;;;4967764;28;86859;-84
2020/12/03 13:55:36;;;;;;;17.63;11.35;;;11.60;52.70;;;;;;4963994;28;87001;-84
2020/12/03 13:58:02;;;;;;;15.73;11.10;;;11.60;51.60;;;;;;4969057;28;86551;-83
2020/12/03 14:00:28;;;;;;;18.30;11.77;;;11.20;50.90;;;;;;4968427;28;86185;-84
2020/12/03 14:02:54;;;;;;;15.40;10.75;;;10.90;51.90;;;;;;4958228;28;87723;-84
2020/12/03 14:05:19;;;;;;;17.48;11.77;;;10.80;53.10;;;;;;4962034;28;86908;-84
2020/12/03 14:07:45;;;;;;;18.27;12.85;;;10.80;52.60;;;;;;4966826;28;87917;-84
2020/12/03 14:10:11;;;;;;;19.15;12.68;;;10.50;53.00;;;;;;4951296;28;87181;-85
2020/12/03 14:12:36;;;;;;;18.33;11.85;;;10.50;53.70;;;;;;4964979;28;87574;-84
2020/12/03 14:15:03;;;;;;;17.65;11.35;;;10.40;54.30;;;;;;4968087;28;87341;-85
2020/12/03 14:17:29;;;;;;;15.93;11.70;;;10.40;54.10;;;;;;4968743;28;86945;-84
2020/12/03 14:19:55;;;;;;;15.50;11.18;;;10.30;53.80;;;;;;4957809;28;86775;-84
2020/12/03 14:22:21;;;;;;;19.95;12.13;;;10.10;54.30;;;;;;4968057;28;87657;-85
2020/12/03 14:24:47;;;;;;;17.13;11.77;;;9.80;54.40;;;;;;4968534;28;87114;-85
2020/12/03 14:27:13;;;;;;;17.33;12.07;;;9.70;55.30;;;;;;4970847;28;87224;-85
2020/12/03 14:29:38;;;;;;;17.73;11.38;;;9.60;55.90;;;;;;4968424;28;86858;-84
2020/12/03 14:32:04;;;;;;;16.85;10.50;;;9.40;56.70;;;;;;4958297;28;87842;-84
2020/12/03 14:34:30;;;;;;;16.02;10.77;;;9.30;57.60;;;;;;4968632;28;88007;-85
2020/12/03 14:36:57;;;;;;;17.08;11.23;;;9.20;57.80;;;;;;4963229;28;87021;-85
2020/12/03 14:39:22;;;;;;;19.38;11.35;;;8.90;58.40;;;;;;4969898;28;86828;-85
2020/12/03 14:41:48;;;;;;;18.20;12.27;;;8.60;58.60;;;;;;4964057;28;87216;-85
2020/12/03 14:44:15;;;;;;;18.33;11.43;;;8.30;59.40;;;;;;4965434;28;87301;-85
2020/12/03 14:46:41;;;;;;;18.92;12.40;;;8.00;60.10;;;;;;4963344;28;86598;-85
2020/12/03 14:49:07;;;;;;;17.10;11.40;;;7.70;60.50;;;;;;4967983;28;86300;-84
2020/12/03 14:51:36;;;;;;;17.08;11.48;;;7.40;61.40;;;;;;4960737;28;89698;-83
2020/12/03 14:54:02;;;;;;;20.30;12.98;;;7.10;62.50;;;;;;4966570;28;86968;-83
2020/12/03 14:56:28;;;;;;;23.05;13.68;;;6.90;63.20;;;;;;4965536;28;87974;-83
2020/12/03 14:58:57;;;;;;;20.75;12.02;;;6.70;64.30;;;;;;4950685;28;87052;-83
2020/12/03 15:01:23;;;;;;;19.60;11.30;;;6.40;64.70;;;;;;4968150;28;87237;-83
2020/12/03 15:03:49;;;;;;;22.17;12.07;;;6.10;65.00;;;;;;4966831;28;87366;-84
2020/12/03 15:06:15;;;;;;;19.33;11.00;;;5.90;66.20;;;;;;4967926;28;86865;-84
2020/12/03 15:08:41;;;;;;;16.65;11.02;;;5.70;66.60;;;;;;4958299;28;86759;-83
2020/12/03 15:11:08;;;;;;;16.65;10.88;;;5.50;67.20;;;;;;4967862;28;86957;-84
2020/12/03 15:13:34;;;;;;;22.30;12.10;;;5.30;68.50;;;;;;4963509;28;86799;-83
2020/12/03 15:16:00;;;;;;;22.15;12.13;;;5.10;69.70;;;;;;4968706;28;86667;-83
2020/12/03 15:18:26;;;;;;;22.05;12.38;;;4.80;70.60;;;;;;4967362;28;87076;-84
2020/12/03 15:20:54;;;;;;;22.88;11.68;;;4.70;71.90;;;;;;4967224;28;88289;-83
2020/12/03 15:23:20;;;;;;;21.40;12.65;;;4.50;72.90;;;;;;4966776;28;88267;-83
2020/12/03 15:25:46;;;;;;;21.80;12.35;;;4.30;73.70;;;;;;4968111;28;86792;-83
2020/12/03 15:28:11;;;;;;;21.17;12.55;;;4.20;74.10;;;;;;4961611;28;86804;-83
2020/12/03 15:30:39;;;;;;;20.15;11.93;;;4.00;75.80;;;;;;4968566;28;88126;-84
2020/12/03 15:33:05;;;;;;;23.55;13.65;;;3.80;76.90;;;;;;4961529;28;87011;-84
2020/12/03 15:35:31;;;;;;;22.60;12.85;;;3.40;78.90;;;;;;4967861;28;87852;-84
2020/12/03 15:37:58;;;;;;;25.02;13.65;;;3.40;78.90;;;;;;4958833;28;86842;-84
2020/12/03 15:40:23;;;;;;;24.95;13.25;;;3.20;78.90;;;;;;4968889;28;88223;-84
2020/12/03 15:42:49;;;;;;;26.00;14.15;;;3.10;79.70;;;;;;4962237;28;87441;-84
2020/12/03 15:45:15;;;;;;;27.58;14.77;;;3.00;79.80;;;;;;4966207;28;87539;-84
2020/12/03 15:47:42;;;;;;;21.40;14.18;;;2.90;81.00;;;;;;4967289;28;86653;-82
2020/12/03 15:50:08;;;;;;;29.38;15.60;;;2.80;81.20;;;;;;4967551;28;88247;-83
2020/12/03 15:52:34;;;;;;;29.88;15.65;;;2.70;81.80;;;;;;4964108;28;86920;-82
2020/12/03 15:55:00;;;;;;;27.08;15.57;;;2.60;82.50;;;;;;4967538;28;86907;-83
2020/12/03 15:57:26;;;;;;;24.50;14.10;;;2.50;84.00;;;;;;4948639;28;87606;-84
2020/12/03 15:59:52;;;;;;;21.42;12.40;;;2.40;84.30;;;;;;4965735;28;86978;-84
2020/12/03 16:02:19;;;;;;;27.58;13.52;;;2.30;84.30;;;;;;4966979;28;86235;-84
2020/12/03 16:04:45;;;;;;;22.52;12.45;;;2.20;85.00;;;;;;4967964;28;86780;-84
2020/12/03 16:07:16;;;;;;;21.90;13.70;;;2.10;86.40;;;;;;4968587;28;86872;-84
2020/12/03 16:09:45;;;;;;;31.08;14.82;;;2.00;87.20;;;;;;4968353;28;87478;-84
2020/12/03 16:12:11;;;;;;;22.75;12.98;;;1.90;90.20;;;;;;4968195;28;87224;-83
2020/12/03 16:14:37;;;;;;;31.65;15.32;;;1.80;90.90;;;;;;4967388;28;86675;-84
2020/12/03 16:17:05;;;;;;;26.63;14.85;;;1.80;90.60;;;;;;4978592;28;87151;-82
2020/12/03 16:19:33;;;;;;;24.88;13.80;;;1.70;91.20;;;;;;4985295;28;86640;-83
2020/12/03 16:22:00;;;;;;;23.73;13.50;;;1.60;93.30;;;;;;4970876;28;87010;-84
2020/12/03 16:24:25;;;;;;;63.70;26.98;;;1.50;96.00;;;;;;4977523;28;86888;-83
2020/12/03 16:26:51;;;;;;;29.98;15.38;;;1.40;97.30;;;;;;4986089;28;85506;-82
2020/12/03 16:29:17;;;;;;;26.80;14.40;;;1.30;97.60;;;;;;4985190;28;86551;-82
2020/12/03 16:31:43;;;;;;;26.48;14.02;;;1.30;97.00;;;;;;4972803;28;86979;-84
2020/12/03 16:34:11;;;;;;;23.50;12.55;;;1.30;96.80;;;;;;4966311;28;87840;-84
2020/12/03 16:36:39;;;;;;;27.52;13.55;;;1.20;97.00;;;;;;4966678;28;86703;-83
2020/12/03 16:39:07;;;;;;;26.42;13.63;;;1.10;97.40;;;;;;4965012;28;87581;-84
2020/12/03 16:41:33;;;;;;;30.25;14.35;;;1.10;98.90;;;;;;4947855;28;89201;-83
2020/12/03 16:43:59;;;;;;;29.27;15.63;;;1.00;99.90;;;;;;4951209;28;86844;-84
2020/12/03 16:46:25;;;;;;;29.80;14.98;;;1.00;99.90;;;;;;4968554;28;87100;-83
2020/12/03 16:48:52;;;;;;;35.83;17.63;;;0.90;99.90;;;;;;4969407;28;88145;-84
2020/12/03 16:51:19;;;;;;;31.90;16.95;;;0.90;99.90;;;;;;4967901;28;87582;-84
2020/12/03 16:53:45;;;;;;;37.85;17.77;;;0.80;99.90;;;;;;4972483;28;86802;-83